sensor_id;sensor_type;location;lat;lon;timestamp;temperature;humidity
13944;DHT22;7044;53.286;8.534;2023-02-11T00:02:19;6.00;99.90
13944;DHT22;7044;53.286;8.534;2023-02-11T00:04:47;6.00;99.90
13944;DHT22;7044;53.286;8.534;2023-02-11T00:07:13;6.00;99.90
13944;DHT22;7044;53.286;8.534;2023-02-11T00:09:40;6.00;99.90
13944;DHT22;7044;53.286;8.534;2023-02-11T00:12:07;6.00;99.90
13944;DHT22;7044;53.286;8.534;2023-02-11T00:14:34;6.10;99.90
13944;DHT22;7044;53.286;8.534;2023-02-11T00:17:00;6.10;99.90
13944;DHT22;7044;53.286;8.534;2023-02-11T00:19:27;6.10;99.90
13944;DHT22;7044;53.286;8.534;2023-02-11T00:21:55;6.10;99.90
13944;DHT22;7044;53.286;8.534;2023-02-11T00:24:22;6.10;99.90
13944;DHT22;7044;53.286;8.534;2023-02-11T00:26:49;6.10;99.90
13944;DHT22;7044;53.286;8.534;2023-02-11T00:29:16;6.10;99.90
13944;DHT22;7044;53.286;8.534;2023-02-11T00:31:42;6.10;99.90
13944;DHT22;7044;53.286;8.534;2023-02-11T00:34:09;6.10;99.90
13944;DHT22;7044;53.286;8.534;2023-02-11T00:36:36;6.10;99.90
13944;DHT22;7044;53.286;8.534;2023-02-11T00:39:05;6.10;99.90
13944;DHT22;7044;53.286;8.534;2023-02-11T00:41:32;6.10;99.90
13944;DHT22;7044;53.286;8.534;2023-02-11T00:43:59;6.10;99.90
13944;DHT22;7044;53.286;8.534;2023-02-11T00:46:26;6.10;99.90
13944;DHT22;7044;53.286;8.534;2023-02-11T00:48:53;6.20;99.90
13944;DHT22;7044;53.286;8.534;2023-02-11T00:51:22;6.20;99.90
13944;DHT22;7044;53.286;8.534;2023-02-11T00:53:49;6.20;99.90
13944;DHT22;7044;53.286;8.534;2023-02-11T00:56:17;6.20;99.90
13944;DHT22;7044;53.286;8.534;2023-02-11T00:58:44;6.20;99.90
13944;DHT22;7044;53.286;8.534;2023-02-11T01:01:11;6.20;99.90
13944;DHT22;7044;53.286;8.534;2023-02-11T01:03:38;6.30;99.90
13944;DHT22;7044;53.286;8.534;2023-02-11T01:06:06;6.20;99.90
13944;DHT22;7044;53.286;8.534;2023-02-11T01:08:33;6.20;99.90
13944;DHT22;7044;53.286;8.534;2023-02-11T01:11:05;6.20;99.90
13944;DHT22;7044;53.286;8.534;2023-02-11T01:13:35;6.20;99.90
13944;DHT22;7044;53.286;8.534;2023-02-11T01:16:04;6.20;99.90
13944;DHT22;7044;53.286;8.534;2023-02-11T01:18:33;6.20;99.90
13944;DHT22;7044;53.286;8.534;2023-02-11T01:20:59;6.20;99.90
13944;DHT22;7044;53.286;8.534;2023-02-11T01:23:26;6.20;99.90
13944;DHT22;7044;53.286;8.534;2023-02-11T01:25:53;6.20;99.90
13944;DHT22;7044;53.286;8.534;2023-02-11T01:28:22;6.20;99.90
13944;DHT22;7044;53.286;8.534;2023-02-11T01:30:51;6.30;99.90
13944;DHT22;7044;53.286;8.534;2023-02-11T01:33:18;6.30;99.90
13944;DHT22;7044;53.286;8.534;2023-02-11T01:35:45;6.30;99.90
13944;DHT22;7044;53.286;8.534;2023-02-11T01:38:15;6.30;99.90
13944;DHT22;7044;53.286;8.534;2023-02-11T01:40:46;6.30;99.90
13944;DHT22;7044;53.286;8.534;2023-02-11T01:43:13;6.30;99.90
13944;DHT22;7044;53.286;8.534;2023-02-11T01:45:58;6.30;99.90
13944;DHT22;7044;53.286;8.534;2023-02-11T01:48:28;6.40;99.90
13944;DHT22;7044;53.286;8.534;2023-02-11T01:51:00;6.40;99.90
13944;DHT22;7044;53.286;8.534;2023-02-11T01:53:29;6.30;99.90
13944;DHT22;7044;53.286;8.534;2023-02-11T01:56:15;6.40;99.90
13944;DHT22;7044;53.286;8.534;2023-02-11T01:59:08;6.40;99.90
13944;DHT22;7044;53.286;8.534;2023-02-11T02:01:39;6.40;99.90
13944;DHT22;7044;53.286;8.534;2023-02-11T02:04:12;6.40;99.90
13944;DHT22;7044;53.286;8.534;2023-02-11T02:06:46;6.40;99.90
13944;DHT22;7044;53.286;8.534;2023-02-11T02:09:18;6.40;99.90
13944;DHT22;7044;53.286;8.534;2023-02-11T02:11:46;6.40;99.90
13944;DHT22;7044;53.286;8.534;2023-02-11T02:14:13;6.40;99.90
13944;DHT22;7044;53.286;8.534;2023-02-11T02:16:41;6.50;99.90
13944;DHT22;7044;53.286;8.534;2023-02-11T02:19:23;6.50;99.90
13944;DHT22;7044;53.286;8.534;2023-02-11T02:22:22;6.40;99.90
13944;DHT22;7044;53.286;8.534;2023-02-11T02:25:10;6.40;99.90
13944;DHT22;7044;53.286;8.534;2023-02-11T02:27:47;6.40;99.90
13944;DHT22;7044;53.286;8.534;2023-02-11T02:30:36;6.40;99.90
13944;DHT22;7044;53.286;8.534;2023-02-11T02:33:13;6.40;99.90
13944;DHT22;7044;53.286;8.534;2023-02-11T02:35:48;6.40;99.90
13944;DHT22;7044;53.286;8.534;2023-02-11T02:38:22;6.50;99.90
13944;DHT22;7044;53.286;8.534;2023-02-11T02:40:53;6.40;99.90
13944;DHT22;7044;53.286;8.534;2023-02-11T02:43:24;6.50;99.90
13944;DHT22;7044;53.286;8.534;2023-02-11T02:45:51;6.40;99.90
13944;DHT22;7044;53.286;8.534;2023-02-11T02:48:27;6.40;99.90
13944;DHT22;7044;53.286;8.534;2023-02-11T02:51:03;6.50;99.90
13944;DHT22;7044;53.286;8.534;2023-02-11T02:53:41;6.40;99.90
13944;DHT22;7044;53.286;8.534;2023-02-11T02:56:13;6.50;99.90
13944;DHT22;7044;53.286;8.534;2023-02-11T02:59:08;6.50;99.90
13944;DHT22;7044;53.286;8.534;2023-02-11T03:01:45;6.50;99.90
13944;DHT22;7044;53.286;8.534;2023-02-11T03:04:20;6.50;99.90
13944;DHT22;7044;53.286;8.534;2023-02-11T03:06:53;6.50;99.90
13944;DHT22;7044;53.286;8.534;2023-02-11T03:09:26;6.50;99.90
13944;DHT22;7044;53.286;8.534;2023-02-11T03:11:53;6.50;99.90
13944;DHT22;7044;53.286;8.534;2023-02-11T03:14:22;6.50;99.90
13944;DHT22;7044;53.286;8.534;2023-02-11T03:16:53;6.50;99.90
13944;DHT22;7044;53.286;8.534;2023-02-11T03:19:25;6.50;99.90
13944;DHT22;7044;53.286;8.534;2023-02-11T03:21:53;6.50;99.90
13944;DHT22;7044;53.286;8.534;2023-02-11T03:24:27;6.40;99.90
13944;DHT22;7044;53.286;8.534;2023-02-11T03:26:57;6.40;99.90
13944;DHT22;7044;53.286;8.534;2023-02-11T03:29:31;6.40;99.90
13944;DHT22;7044;53.286;8.534;2023-02-11T03:32:04;6.50;99.90
13944;DHT22;7044;53.286;8.534;2023-02-11T03:34:39;6.60;99.90
13944;DHT22;7044;53.286;8.534;2023-02-11T03:37:10;6.50;99.90
13944;DHT22;7044;53.286;8.534;2023-02-11T03:39:41;6.50;99.90
13944;DHT22;7044;53.286;8.534;2023-02-11T03:42:10;6.50;99.90
13944;DHT22;7044;53.286;8.534;2023-02-11T03:44:41;6.60;99.90
13944;DHT22;7044;53.286;8.534;2023-02-11T03:47:11;6.50;99.90
13944;DHT22;7044;53.286;8.534;2023-02-11T03:49:42;6.60;99.90
13944;DHT22;7044;53.286;8.534;2023-02-11T03:52:11;6.60;99.90
13944;DHT22;7044;53.286;8.534;2023-02-11T03:54:40;6.60;99.90
13944;DHT22;7044;53.286;8.534;2023-02-11T03:57:09;6.60;99.90
13944;DHT22;7044;53.286;8.534;2023-02-11T03:59:54;6.60;99.90
13944;DHT22;7044;53.286;8.534;2023-02-11T04:02:23;6.60;99.90
13944;DHT22;7044;53.286;8.534;2023-02-11T04:04:52;6.70;99.90
13944;DHT22;7044;53.286;8.534;2023-02-11T04:07:19;6.60;99.90
13944;DHT22;7044;53.286;8.534;2023-02-11T04:09:46;6.60;99.90
13944;DHT22;7044;53.286;8.534;2023-02-11T04:12:12;6.70;99.90
13944;DHT22;7044;53.286;8.534;2023-02-11T04:14:39;6.70;99.90
13944;DHT22;7044;53.286;8.534;2023-02-11T04:17:06;6.70;99.90
13944;DHT22;7044;53.286;8.534;2023-02-11T04:19:33;6.70;99.90
13944;DHT22;7044;53.286;8.534;2023-02-11T04:22:01;6.70;99.90
13944;DHT22;7044;53.286;8.534;2023-02-11T04:24:28;6.70;99.90
13944;DHT22;7044;53.286;8.534;2023-02-11T04:26:55;6.70;99.90
13944;DHT22;7044;53.286;8.534;2023-02-11T04:29:22;6.70;99.90
13944;DHT22;7044;53.286;8.534;2023-02-11T04:31:49;6.70;99.90
13944;DHT22;7044;53.286;8.534;2023-02-11T04:34:16;6.70;99.90
13944;DHT22;7044;53.286;8.534;2023-02-11T04:36:43;6.70;99.90
13944;DHT22;7044;53.286;8.534;2023-02-11T04:39:11;6.70;99.90
13944;DHT22;7044;53.286;8.534;2023-02-11T04:41:38;6.70;99.90
13944;DHT22;7044;53.286;8.534;2023-02-11T04:44:05;6.70;99.90
13944;DHT22;7044;53.286;8.534;2023-02-11T04:46:31;6.80;99.90
13944;DHT22;7044;53.286;8.534;2023-02-11T04:48:58;6.80;99.90
13944;DHT22;7044;53.286;8.534;2023-02-11T04:51:25;6.70;99.90
13944;DHT22;7044;53.286;8.534;2023-02-11T04:53:52;6.70;99.90
13944;DHT22;7044;53.286;8.534;2023-02-11T04:56:20;6.70;99.90
13944;DHT22;7044;53.286;8.534;2023-02-11T04:58:46;6.70;99.90
13944;DHT22;7044;53.286;8.534;2023-02-11T05:01:14;6.70;99.90
13944;DHT22;7044;53.286;8.534;2023-02-11T05:03:42;6.70;99.90
13944;DHT22;7044;53.286;8.534;2023-02-11T05:06:09;6.70;99.90
13944;DHT22;7044;53.286;8.534;2023-02-11T05:08:36;6.80;99.90
13944;DHT22;7044;53.286;8.534;2023-02-11T05:11:04;6.80;99.90
13944;DHT22;7044;53.286;8.534;2023-02-11T05:13:32;6.80;99.90
13944;DHT22;7044;53.286;8.534;2023-02-11T05:15:59;6.80;99.90
13944;DHT22;7044;53.286;8.534;2023-02-11T05:18:25;6.80;99.90
13944;DHT22;7044;53.286;8.534;2023-02-11T05:20:52;6.80;99.90
13944;DHT22;7044;53.286;8.534;2023-02-11T05:23:19;6.80;99.90
13944;DHT22;7044;53.286;8.534;2023-02-11T05:25:46;6.80;99.90
13944;DHT22;7044;53.286;8.534;2023-02-11T05:28:12;6.80;99.90
13944;DHT22;7044;53.286;8.534;2023-02-11T05:30:41;6.80;99.90
13944;DHT22;7044;53.286;8.534;2023-02-11T05:33:07;6.80;99.90
13944;DHT22;7044;53.286;8.534;2023-02-11T05:35:34;6.80;99.90
13944;DHT22;7044;53.286;8.534;2023-02-11T05:38:01;6.80;99.90
13944;DHT22;7044;53.286;8.534;2023-02-11T05:40:28;6.80;99.90
13944;DHT22;7044;53.286;8.534;2023-02-11T05:42:54;6.80;99.90
13944;DHT22;7044;53.286;8.534;2023-02-11T05:45:21;6.80;99.90
13944;DHT22;7044;53.286;8.534;2023-02-11T05:47:49;6.80;99.90
13944;DHT22;7044;53.286;8.534;2023-02-11T05:50:16;6.80;99.90
13944;DHT22;7044;53.286;8.534;2023-02-11T05:52:43;6.90;99.90
13944;DHT22;7044;53.286;8.534;2023-02-11T05:55:10;6.90;99.90
13944;DHT22;7044;53.286;8.534;2023-02-11T05:57:37;6.90;99.90
13944;DHT22;7044;53.286;8.534;2023-02-11T06:00:05;6.90;99.90
13944;DHT22;7044;53.286;8.534;2023-02-11T06:02:32;6.90;99.90
13944;DHT22;7044;53.286;8.534;2023-02-11T06:05:00;6.80;99.90
13944;DHT22;7044;53.286;8.534;2023-02-11T06:07:27;6.90;99.90
13944;DHT22;7044;53.286;8.534;2023-02-11T06:09:54;6.90;99.90
13944;DHT22;7044;53.286;8.534;2023-02-11T06:12:20;6.90;99.90
13944;DHT22;7044;53.286;8.534;2023-02-11T06:14:47;6.90;99.90
13944;DHT22;7044;53.286;8.534;2023-02-11T06:17:14;6.90;99.90
13944;DHT22;7044;53.286;8.534;2023-02-11T06:19:41;6.90;99.90
13944;DHT22;7044;53.286;8.534;2023-02-11T06:22:09;6.80;99.90
13944;DHT22;7044;53.286;8.534;2023-02-11T06:24:36;6.90;99.90
13944;DHT22;7044;53.286;8.534;2023-02-11T06:27:03;6.90;99.90
13944;DHT22;7044;53.286;8.534;2023-02-11T06:29:30;7.00;99.90
13944;DHT22;7044;53.286;8.534;2023-02-11T06:31:57;7.00;99.90
13944;DHT22;7044;53.286;8.534;2023-02-11T06:34:24;7.00;99.90
13944;DHT22;7044;53.286;8.534;2023-02-11T06:36:50;7.00;99.90
13944;DHT22;7044;53.286;8.534;2023-02-11T06:39:18;7.00;99.90
13944;DHT22;7044;53.286;8.534;2023-02-11T06:41:45;7.00;99.90
13944;DHT22;7044;53.286;8.534;2023-02-11T06:44:12;7.00;99.90
13944;DHT22;7044;53.286;8.534;2023-02-11T06:46:39;7.00;99.90
13944;DHT22;7044;53.286;8.534;2023-02-11T06:49:05;7.00;99.90
13944;DHT22;7044;53.286;8.534;2023-02-11T06:51:32;7.10;99.90
13944;DHT22;7044;53.286;8.534;2023-02-11T06:53:59;7.00;99.90
13944;DHT22;7044;53.286;8.534;2023-02-11T06:56:27;7.10;99.90
13944;DHT22;7044;53.286;8.534;2023-02-11T06:58:55;7.10;99.90
13944;DHT22;7044;53.286;8.534;2023-02-11T07:01:23;7.10;99.90
13944;DHT22;7044;53.286;8.534;2023-02-11T07:03:50;6.90;99.90
13944;DHT22;7044;53.286;8.534;2023-02-11T07:06:19;7.10;99.90
13944;DHT22;7044;53.286;8.534;2023-02-11T07:08:46;7.10;99.90
13944;DHT22;7044;53.286;8.534;2023-02-11T07:11:15;7.10;99.90
13944;DHT22;7044;53.286;8.534;2023-02-11T07:13:45;7.10;99.90
13944;DHT22;7044;53.286;8.534;2023-02-11T07:16:13;7.10;99.90
13944;DHT22;7044;53.286;8.534;2023-02-11T07:18:41;7.10;99.90
13944;DHT22;7044;53.286;8.534;2023-02-11T07:21:10;7.10;99.90
13944;DHT22;7044;53.286;8.534;2023-02-11T07:23:37;7.10;99.90
13944;DHT22;7044;53.286;8.534;2023-02-11T07:26:06;7.10;99.90
13944;DHT22;7044;53.286;8.534;2023-02-11T07:28:34;7.10;99.90
13944;DHT22;7044;53.286;8.534;2023-02-11T07:31:06;7.10;99.90
13944;DHT22;7044;53.286;8.534;2023-02-11T07:33:34;7.10;99.90
13944;DHT22;7044;53.286;8.534;2023-02-11T07:36:00;7.20;99.90
13944;DHT22;7044;53.286;8.534;2023-02-11T07:38:27;7.10;99.90
13944;DHT22;7044;53.286;8.534;2023-02-11T07:40:58;7.10;99.90
13944;DHT22;7044;53.286;8.534;2023-02-11T07:43:24;7.10;99.90
13944;DHT22;7044;53.286;8.534;2023-02-11T07:45:51;7.20;99.90
13944;DHT22;7044;53.286;8.534;2023-02-11T07:48:19;7.10;99.90
13944;DHT22;7044;53.286;8.534;2023-02-11T07:50:46;7.20;99.90
13944;DHT22;7044;53.286;8.534;2023-02-11T07:53:13;7.20;99.90
13944;DHT22;7044;53.286;8.534;2023-02-11T07:55:41;7.20;99.90
13944;DHT22;7044;53.286;8.534;2023-02-11T07:58:08;7.20;99.90
13944;DHT22;7044;53.286;8.534;2023-02-11T08:00:35;7.10;99.90
13944;DHT22;7044;53.286;8.534;2023-02-11T08:03:02;7.20;99.90
13944;DHT22;7044;53.286;8.534;2023-02-11T08:05:31;7.20;99.90
13944;DHT22;7044;53.286;8.534;2023-02-11T08:07:57;7.20;99.90
13944;DHT22;7044;53.286;8.534;2023-02-11T08:10:24;7.20;99.90
13944;DHT22;7044;53.286;8.534;2023-02-11T08:12:51;7.20;99.90
13944;DHT22;7044;53.286;8.534;2023-02-11T08:15:19;7.20;99.90
13944;DHT22;7044;53.286;8.534;2023-02-11T08:17:46;7.20;99.90
13944;DHT22;7044;53.286;8.534;2023-02-11T08:20:12;7.20;99.90
13944;DHT22;7044;53.286;8.534;2023-02-11T08:22:41;7.20;99.90
13944;DHT22;7044;53.286;8.534;2023-02-11T08:25:08;7.30;99.90
13944;DHT22;7044;53.286;8.534;2023-02-11T08:27:35;7.30;99.90
13944;DHT22;7044;53.286;8.534;2023-02-11T08:30:02;7.30;99.90
13944;DHT22;7044;53.286;8.534;2023-02-11T08:32:29;7.30;99.90
13944;DHT22;7044;53.286;8.534;2023-02-11T08:34:56;7.30;99.90
13944;DHT22;7044;53.286;8.534;2023-02-11T08:37:23;7.30;99.90
13944;DHT22;7044;53.286;8.534;2023-02-11T08:39:51;7.30;99.90
13944;DHT22;7044;53.286;8.534;2023-02-11T08:42:18;7.30;99.90
13944;DHT22;7044;53.286;8.534;2023-02-11T08:44:45;7.40;99.90
13944;DHT22;7044;53.286;8.534;2023-02-11T08:47:11;7.30;99.90
13944;DHT22;7044;53.286;8.534;2023-02-11T08:49:38;7.40;99.90
13944;DHT22;7044;53.286;8.534;2023-02-11T08:52:06;7.40;99.90
13944;DHT22;7044;53.286;8.534;2023-02-11T08:54:33;7.50;99.90
13944;DHT22;7044;53.286;8.534;2023-02-11T08:57:02;7.40;99.90
13944;DHT22;7044;53.286;8.534;2023-02-11T08:59:29;7.40;99.90
13944;DHT22;7044;53.286;8.534;2023-02-11T09:01:56;8.30;99.90
13944;DHT22;7044;53.286;8.534;2023-02-11T09:04:22;7.50;99.90
13944;DHT22;7044;53.286;8.534;2023-02-11T09:06:49;7.50;99.90
13944;DHT22;7044;53.286;8.534;2023-02-11T09:09:16;7.50;99.90
13944;DHT22;7044;53.286;8.534;2023-02-11T09:11:44;7.50;99.90
13944;DHT22;7044;53.286;8.534;2023-02-11T09:14:17;7.50;99.90
13944;DHT22;7044;53.286;8.534;2023-02-11T09:16:44;7.50;99.90
13944;DHT22;7044;53.286;8.534;2023-02-11T09:19:11;7.60;99.90
13944;DHT22;7044;53.286;8.534;2023-02-11T09:21:38;7.50;99.90
13944;DHT22;7044;53.286;8.534;2023-02-11T09:24:05;7.50;99.90
13944;DHT22;7044;53.286;8.534;2023-02-11T09:26:33;7.50;99.90
13944;DHT22;7044;53.286;8.534;2023-02-11T09:29:02;7.50;99.90
13944;DHT22;7044;53.286;8.534;2023-02-11T09:31:32;7.50;99.90
13944;DHT22;7044;53.286;8.534;2023-02-11T09:34:00;7.50;99.90
13944;DHT22;7044;53.286;8.534;2023-02-11T09:36:30;7.50;99.90
13944;DHT22;7044;53.286;8.534;2023-02-11T09:38:59;7.60;99.90
13944;DHT22;7044;53.286;8.534;2023-02-11T09:41:34;7.60;99.90
13944;DHT22;7044;53.286;8.534;2023-02-11T09:44:05;7.60;99.90
13944;DHT22;7044;53.286;8.534;2023-02-11T09:46:39;7.60;99.90
13944;DHT22;7044;53.286;8.534;2023-02-11T09:49:17;7.60;99.90
13944;DHT22;7044;53.286;8.534;2023-02-11T09:51:48;7.70;99.90
13944;DHT22;7044;53.286;8.534;2023-02-11T09:54:19;7.60;99.90
13944;DHT22;7044;53.286;8.534;2023-02-11T09:56:48;7.60;99.90
13944;DHT22;7044;53.286;8.534;2023-02-11T09:59:16;7.60;99.90
13944;DHT22;7044;53.286;8.534;2023-02-11T10:01:47;7.60;99.90
13944;DHT22;7044;53.286;8.534;2023-02-11T10:04:23;7.60;99.90
13944;DHT22;7044;53.286;8.534;2023-02-11T10:06:56;7.60;99.90
13944;DHT22;7044;53.286;8.534;2023-02-11T10:09:36;7.70;99.90
13944;DHT22;7044;53.286;8.534;2023-02-11T10:12:17;7.70;99.90
13944;DHT22;7044;53.286;8.534;2023-02-11T10:15:01;7.70;99.90
13944;DHT22;7044;53.286;8.534;2023-02-11T10:17:39;7.70;99.90
13944;DHT22;7044;53.286;8.534;2023-02-11T10:20:15;7.70;99.90
13944;DHT22;7044;53.286;8.534;2023-02-11T10:22:47;7.70;99.90
13944;DHT22;7044;53.286;8.534;2023-02-11T10:25:21;7.70;99.90
13944;DHT22;7044;53.286;8.534;2023-02-11T10:27:49;7.70;99.90
13944;DHT22;7044;53.286;8.534;2023-02-11T10:30:25;7.70;99.90
13944;DHT22;7044;53.286;8.534;2023-02-11T10:32:59;7.70;99.90
13944;DHT22;7044;53.286;8.534;2023-02-11T10:35:26;7.70;99.90
13944;DHT22;7044;53.286;8.534;2023-02-11T10:37:53;7.70;99.90
13944;DHT22;7044;53.286;8.534;2023-02-11T10:40:23;7.70;99.90
13944;DHT22;7044;53.286;8.534;2023-02-11T10:42:52;7.70;99.90
13944;DHT22;7044;53.286;8.534;2023-02-11T10:45:24;7.70;99.90
13944;DHT22;7044;53.286;8.534;2023-02-11T10:47:52;7.80;99.90
13944;DHT22;7044;53.286;8.534;2023-02-11T10:50:25;7.80;99.90
13944;DHT22;7044;53.286;8.534;2023-02-11T10:52:52;7.80;99.90
13944;DHT22;7044;53.286;8.534;2023-02-11T10:55:36;7.80;99.90
13944;DHT22;7044;53.286;8.534;2023-02-11T10:58:03;7.70;99.90
13944;DHT22;7044;53.286;8.534;2023-02-11T11:00:36;7.80;99.90
13944;DHT22;7044;53.286;8.534;2023-02-11T11:03:06;7.80;99.90
13944;DHT22;7044;53.286;8.534;2023-02-11T11:05:47;7.80;99.90
13944;DHT22;7044;53.286;8.534;2023-02-11T11:08:15;7.80;99.90
13944;DHT22;7044;53.286;8.534;2023-02-11T11:10:44;7.80;99.90
13944;DHT22;7044;53.286;8.534;2023-02-11T11:13:27;7.80;99.90
13944;DHT22;7044;53.286;8.534;2023-02-11T11:16:21;7.80;99.90
13944;DHT22;7044;53.286;8.534;2023-02-11T11:18:49;7.80;99.90
13944;DHT22;7044;53.286;8.534;2023-02-11T11:21:23;7.90;99.90
13944;DHT22;7044;53.286;8.534;2023-02-11T11:23:55;7.80;99.90
13944;DHT22;7044;53.286;8.534;2023-02-11T11:26:24;7.90;99.90
13944;DHT22;7044;53.286;8.534;2023-02-11T11:28:55;7.90;99.90
13944;DHT22;7044;53.286;8.534;2023-02-11T11:31:26;7.90;99.90
13944;DHT22;7044;53.286;8.534;2023-02-11T11:33:54;7.90;99.90
13944;DHT22;7044;53.286;8.534;2023-02-11T11:36:31;8.00;99.90
13944;DHT22;7044;53.286;8.534;2023-02-11T11:39:02;8.00;99.90
13944;DHT22;7044;53.286;8.534;2023-02-11T11:41:31;8.00;99.90
13944;DHT22;7044;53.286;8.534;2023-02-11T11:44:01;8.00;99.90
13944;DHT22;7044;53.286;8.534;2023-02-11T11:46:33;8.00;99.90
13944;DHT22;7044;53.286;8.534;2023-02-11T11:49:11;8.10;99.90
13944;DHT22;7044;53.286;8.534;2023-02-11T11:51:41;8.00;99.90
13944;DHT22;7044;53.286;8.534;2023-02-11T11:54:11;8.10;99.90
13944;DHT22;7044;53.286;8.534;2023-02-11T11:56:44;8.10;99.90
13944;DHT22;7044;53.286;8.534;2023-02-11T11:59:12;8.10;99.90
13944;DHT22;7044;53.286;8.534;2023-02-11T12:01:50;8.10;99.90
13944;DHT22;7044;53.286;8.534;2023-02-11T12:04:38;8.10;99.90
13944;DHT22;7044;53.286;8.534;2023-02-11T12:07:17;8.10;99.90
13944;DHT22;7044;53.286;8.534;2023-02-11T12:09:54;8.10;99.90
13944;DHT22;7044;53.286;8.534;2023-02-11T12:12:34;8.10;99.90
13944;DHT22;7044;53.286;8.534;2023-02-11T12:15:14;8.20;99.90
13944;DHT22;7044;53.286;8.534;2023-02-11T12:17:56;8.20;99.90
13944;DHT22;7044;53.286;8.534;2023-02-11T12:20:34;8.20;99.90
13944;DHT22;7044;53.286;8.534;2023-02-11T12:23:17;8.30;99.90
13944;DHT22;7044;53.286;8.534;2023-02-11T12:25:53;8.20;99.90
13944;DHT22;7044;53.286;8.534;2023-02-11T12:28:30;8.30;99.90
13944;DHT22;7044;53.286;8.534;2023-02-11T12:31:17;8.30;99.90
13944;DHT22;7044;53.286;8.534;2023-02-11T12:34:03;8.30;99.90
13944;DHT22;7044;53.286;8.534;2023-02-11T12:36:47;8.30;99.90
13944;DHT22;7044;53.286;8.534;2023-02-11T12:42:45;8.30;99.90
13944;DHT22;7044;53.286;8.534;2023-02-11T12:45:42;8.40;99.90
13944;DHT22;7044;53.286;8.534;2023-02-11T12:48:24;8.40;99.90
13944;DHT22;7044;53.286;8.534;2023-02-11T12:50:59;8.40;99.90
13944;DHT22;7044;53.286;8.534;2023-02-11T12:53:47;8.40;99.90
13944;DHT22;7044;53.286;8.534;2023-02-11T12:56:23;8.40;99.90
13944;DHT22;7044;53.286;8.534;2023-02-11T12:58:54;8.50;99.90
13944;DHT22;7044;53.286;8.534;2023-02-11T13:01:25;8.50;99.90
13944;DHT22;7044;53.286;8.534;2023-02-11T13:03:55;8.50;99.90
13944;DHT22;7044;53.286;8.534;2023-02-11T13:06:27;8.50;99.90
13944;DHT22;7044;53.286;8.534;2023-02-11T13:08:59;8.50;99.90
13944;DHT22;7044;53.286;8.534;2023-02-11T13:11:37;8.50;99.90
13944;DHT22;7044;53.286;8.534;2023-02-11T13:14:10;8.50;99.90
13944;DHT22;7044;53.286;8.534;2023-02-11T13:16:40;8.50;99.90
13944;DHT22;7044;53.286;8.534;2023-02-11T13:19:16;8.50;99.90
13944;DHT22;7044;53.286;8.534;2023-02-11T13:22:04;8.50;99.90
13944;DHT22;7044;53.286;8.534;2023-02-11T13:24:40;8.50;99.90
13944;DHT22;7044;53.286;8.534;2023-02-11T13:27:18;8.50;99.90
13944;DHT22;7044;53.286;8.534;2023-02-11T13:30:20;8.60;99.90
13944;DHT22;7044;53.286;8.534;2023-02-11T13:33:17;8.60;99.90
13944;DHT22;7044;53.286;8.534;2023-02-11T13:35:47;8.60;99.90
13944;DHT22;7044;53.286;8.534;2023-02-11T13:38:20;8.60;99.90
13944;DHT22;7044;53.286;8.534;2023-02-11T13:41:00;8.70;99.90
13944;DHT22;7044;53.286;8.534;2023-02-11T13:43:30;8.50;99.90
13944;DHT22;7044;53.286;8.534;2023-02-11T13:45:59;8.60;99.90
13944;DHT22;7044;53.286;8.534;2023-02-11T13:48:28;8.60;99.90
13944;DHT22;7044;53.286;8.534;2023-02-11T13:50:58;8.60;99.90
13944;DHT22;7044;53.286;8.534;2023-02-11T13:53:26;8.60;99.90
13944;DHT22;7044;53.286;8.534;2023-02-11T13:56:05;8.60;99.90
13944;DHT22;7044;53.286;8.534;2023-02-11T13:58:36;8.60;99.90
13944;DHT22;7044;53.286;8.534;2023-02-11T14:01:05;8.60;99.90
13944;DHT22;7044;53.286;8.534;2023-02-11T14:03:35;8.60;99.90
13944;DHT22;7044;53.286;8.534;2023-02-11T14:06:25;8.60;99.90
13944;DHT22;7044;53.286;8.534;2023-02-11T14:09:33;8.60;99.90
13944;DHT22;7044;53.286;8.534;2023-02-11T14:12:34;8.60;99.90
13944;DHT22;7044;53.286;8.534;2023-02-11T14:15:20;8.60;99.90
13944;DHT22;7044;53.286;8.534;2023-02-11T14:17:48;8.60;99.90
13944;DHT22;7044;53.286;8.534;2023-02-11T14:20:39;8.50;99.90
13944;DHT22;7044;53.286;8.534;2023-02-11T14:23:21;8.50;99.90
13944;DHT22;7044;53.286;8.534;2023-02-11T14:25:58;8.50;99.90
13944;DHT22;7044;53.286;8.534;2023-02-11T14:28:28;8.50;99.90
13944;DHT22;7044;53.286;8.534;2023-02-11T14:31:06;8.50;99.90
13944;DHT22;7044;53.286;8.534;2023-02-11T14:34:05;8.50;99.90
13944;DHT22;7044;53.286;8.534;2023-02-11T14:39:31;8.50;99.90
13944;DHT22;7044;53.286;8.534;2023-02-11T14:42:01;8.50;99.90
13944;DHT22;7044;53.286;8.534;2023-02-11T14:44:30;8.50;99.90
13944;DHT22;7044;53.286;8.534;2023-02-11T14:47:00;8.50;99.90
13944;DHT22;7044;53.286;8.534;2023-02-11T14:49:28;8.50;99.90
13944;DHT22;7044;53.286;8.534;2023-02-11T14:52:02;8.50;99.90
13944;DHT22;7044;53.286;8.534;2023-02-11T14:54:29;8.50;99.90
13944;DHT22;7044;53.286;8.534;2023-02-11T14:57:10;8.40;99.90
13944;DHT22;7044;53.286;8.534;2023-02-11T14:59:37;8.50;99.90
13944;DHT22;7044;53.286;8.534;2023-02-11T15:02:19;8.40;99.90
13944;DHT22;7044;53.286;8.534;2023-02-11T15:04:47;8.50;99.90
13944;DHT22;7044;53.286;8.534;2023-02-11T15:07:14;8.40;99.90
13944;DHT22;7044;53.286;8.534;2023-02-11T15:09:43;8.40;99.90
13944;DHT22;7044;53.286;8.534;2023-02-11T15:12:16;8.50;99.90
13944;DHT22;7044;53.286;8.534;2023-02-11T15:14:46;8.40;99.90
13944;DHT22;7044;53.286;8.534;2023-02-11T15:17:18;8.40;99.90
13944;DHT22;7044;53.286;8.534;2023-02-11T15:19:48;8.40;99.90
13944;DHT22;7044;53.286;8.534;2023-02-11T15:22:19;8.50;99.90
13944;DHT22;7044;53.286;8.534;2023-02-11T15:24:58;8.40;99.90
13944;DHT22;7044;53.286;8.534;2023-02-11T15:27:25;8.40;99.90
13944;DHT22;7044;53.286;8.534;2023-02-11T15:29:52;8.40;99.90
13944;DHT22;7044;53.286;8.534;2023-02-11T15:32:22;8.40;99.90
13944;DHT22;7044;53.286;8.534;2023-02-11T15:34:50;8.40;99.90
13944;DHT22;7044;53.286;8.534;2023-02-11T15:37:20;8.30;99.90
13944;DHT22;7044;53.286;8.534;2023-02-11T15:39:48;8.40;99.90
13944;DHT22;7044;53.286;8.534;2023-02-11T15:42:20;8.40;99.90
13944;DHT22;7044;53.286;8.534;2023-02-11T15:44:48;8.40;99.90
13944;DHT22;7044;53.286;8.534;2023-02-11T15:47:19;8.40;99.90
13944;DHT22;7044;53.286;8.534;2023-02-11T15:49:47;8.40;99.90
13944;DHT22;7044;53.286;8.534;2023-02-11T15:52:21;8.40;99.90
13944;DHT22;7044;53.286;8.534;2023-02-11T15:54:49;8.40;99.90
13944;DHT22;7044;53.286;8.534;2023-02-11T15:57:16;8.40;99.90
13944;DHT22;7044;53.286;8.534;2023-02-11T15:59:47;8.30;99.90
13944;DHT22;7044;53.286;8.534;2023-02-11T16:02:17;8.40;99.90
13944;DHT22;7044;53.286;8.534;2023-02-11T16:04:51;8.70;99.90
13944;DHT22;7044;53.286;8.534;2023-02-11T16:07:41;8.80;99.90
13944;DHT22;7044;53.286;8.534;2023-02-11T16:10:23;8.60;99.90
13944;DHT22;7044;53.286;8.534;2023-02-11T16:12:57;8.50;99.90
13944;DHT22;7044;53.286;8.534;2023-02-11T16:20:57;8.40;99.90
13944;DHT22;7044;53.286;8.534;2023-02-11T16:23:26;8.30;99.90
13944;DHT22;7044;53.286;8.534;2023-02-11T16:25:58;8.30;99.90
13944;DHT22;7044;53.286;8.534;2023-02-11T16:28:25;8.30;99.90
13944;DHT22;7044;53.286;8.534;2023-02-11T16:30:53;8.30;99.90
13944;DHT22;7044;53.286;8.534;2023-02-11T16:33:20;8.30;99.90
13944;DHT22;7044;53.286;8.534;2023-02-11T16:35:47;8.20;99.90
13944;DHT22;7044;53.286;8.534;2023-02-11T16:38:17;8.20;99.90
13944;DHT22;7044;53.286;8.534;2023-02-11T16:40:44;8.20;99.90